Thatcher, Arizona
Current Conditions -  °F | °C
As of 4:51 AM on Monday 20 Oct 2014 (Local Time) from KSAD Reporting Station
Clear Clear  
Wind Chill: 55°   Ceiling: Unl
Heat Index: 55°   Visibility: 10mi
Dew Point: 51°   Wind: 8mph
Humidity: 86%   Direction: 110°ESE
Pressure: 30.02"   Gusts: NA
Location:  32.85°N, 109.76°W
Report Text: KSAD 201151Z AUTO 11007KT 10SM CLR 13/11 A3002 RMK AO2 SLP136 70114 T01280106 10156 20128 53000 $
Loading
Personal Weather Stations






























Interactive Weather Map
Tropical Storm Tracking
New forecast layout! Learn more

10-Day Weather Forecast

Advertisements
Track Severe Weather on mobile